sensor_id;sensor_type;location;lat;lon;timestamp;temperature;humidity
46217;DHT22;47258;59.424;13.482;2023-02-26T00:00:35;-2.40;99.90
46217;DHT22;47258;59.424;13.482;2023-02-26T00:03:02;-2.40;99.90
46217;DHT22;47258;59.424;13.482;2023-02-26T00:05:29;-2.40;99.90
46217;DHT22;47258;59.424;13.482;2023-02-26T00:07:56;-2.40;99.90
46217;DHT22;47258;59.424;13.482;2023-02-26T00:10:24;-2.40;99.90
46217;DHT22;47258;59.424;13.482;2023-02-26T00:12:53;-2.40;99.90
46217;DHT22;47258;59.424;13.482;2023-02-26T00:15:21;-2.40;99.90
46217;DHT22;47258;59.424;13.482;2023-02-26T00:17:52;-2.40;99.90
46217;DHT22;47258;59.424;13.482;2023-02-26T00:20:22;-2.40;99.90
46217;DHT22;47258;59.424;13.482;2023-02-26T00:22:50;-2.40;99.90
46217;DHT22;47258;59.424;13.482;2023-02-26T00:25:17;-2.40;99.90
46217;DHT22;47258;59.424;13.482;2023-02-26T00:27:45;-2.40;99.90
46217;DHT22;47258;59.424;13.482;2023-02-26T00:30:14;-2.50;99.90
46217;DHT22;47258;59.424;13.482;2023-02-26T00:32:41;-2.50;99.90
46217;DHT22;47258;59.424;13.482;2023-02-26T00:35:12;-2.50;99.90
46217;DHT22;47258;59.424;13.482;2023-02-26T00:38:04;-2.50;99.90
46217;DHT22;47258;59.424;13.482;2023-02-26T00:40:39;-2.50;99.90
46217;DHT22;47258;59.424;13.482;2023-02-26T00:43:09;-2.50;99.90
46217;DHT22;47258;59.424;13.482;2023-02-26T00:45:43;-2.50;99.90
46217;DHT22;47258;59.424;13.482;2023-02-26T00:48:23;-2.50;99.90
46217;DHT22;47258;59.424;13.482;2023-02-26T00:50:58;-2.50;99.90
46217;DHT22;47258;59.424;13.482;2023-02-26T00:53:33;-2.60;99.90
46217;DHT22;47258;59.424;13.482;2023-02-26T00:56:01;-2.60;99.90
46217;DHT22;47258;59.424;13.482;2023-02-26T00:58:28;-2.60;99.90
46217;DHT22;47258;59.424;13.482;2023-02-26T01:00:58;-2.60;99.90
46217;DHT22;47258;59.424;13.482;2023-02-26T01:03:26;-2.60;99.90
46217;DHT22;47258;59.424;13.482;2023-02-26T01:05:53;-2.70;99.90
46217;DHT22;47258;59.424;13.482;2023-02-26T01:08:25;-2.70;99.90
46217;DHT22;47258;59.424;13.482;2023-02-26T01:10:54;-2.70;99.90
46217;DHT22;47258;59.424;13.482;2023-02-26T01:13:21;-2.80;99.90
46217;DHT22;47258;59.424;13.482;2023-02-26T01:15:53;-2.80;99.90
46217;DHT22;47258;59.424;13.482;2023-02-26T01:18:26;-2.80;99.90
46217;DHT22;47258;59.424;13.482;2023-02-26T01:20:58;-2.80;99.90
46217;DHT22;47258;59.424;13.482;2023-02-26T01:23:31;-2.80;99.90
46217;DHT22;47258;59.424;13.482;2023-02-26T01:26:04;-2.80;99.90
46217;DHT22;47258;59.424;13.482;2023-02-26T01:28:33;-2.80;99.90
46217;DHT22;47258;59.424;13.482;2023-02-26T01:31:02;-2.90;99.90
46217;DHT22;47258;59.424;13.482;2023-02-26T01:33:37;-2.90;99.90
46217;DHT22;47258;59.424;13.482;2023-02-26T01:36:07;-2.90;99.90
46217;DHT22;47258;59.424;13.482;2023-02-26T01:38:38;-2.90;99.90
46217;DHT22;47258;59.424;13.482;2023-02-26T01:41:20;-2.90;99.90
46217;DHT22;47258;59.424;13.482;2023-02-26T01:44:08;-2.90;99.90
46217;DHT22;47258;59.424;13.482;2023-02-26T01:46:50;-2.90;99.90
46217;DHT22;47258;59.424;13.482;2023-02-26T01:49:22;-2.90;99.90
46217;DHT22;47258;59.424;13.482;2023-02-26T01:51:50;-3.00;99.90
46217;DHT22;47258;59.424;13.482;2023-02-26T01:54:19;-3.00;99.90
46217;DHT22;47258;59.424;13.482;2023-02-26T01:56:49;-3.00;99.90
46217;DHT22;47258;59.424;13.482;2023-02-26T01:59:18;-3.00;99.90
46217;DHT22;47258;59.424;13.482;2023-02-26T02:01:49;-3.00;99.90
46217;DHT22;47258;59.424;13.482;2023-02-26T02:04:18;-3.00;99.90
46217;DHT22;47258;59.424;13.482;2023-02-26T02:06:47;-3.10;99.90
46217;DHT22;47258;59.424;13.482;2023-02-26T02:09:14;-3.10;99.90
46217;DHT22;47258;59.424;13.482;2023-02-26T02:11:53;-3.10;99.90
46217;DHT22;47258;59.424;13.482;2023-02-26T02:14:30;-3.00;99.90
46217;DHT22;47258;59.424;13.482;2023-02-26T02:17:08;-3.10;99.90
46217;DHT22;47258;59.424;13.482;2023-02-26T02:19:58;-3.10;99.90
46217;DHT22;47258;59.424;13.482;2023-02-26T02:22:50;-3.00;99.90
46217;DHT22;47258;59.424;13.482;2023-02-26T02:25:39;-3.10;99.90
46217;DHT22;47258;59.424;13.482;2023-02-26T02:28:19;-3.10;99.90
46217;DHT22;47258;59.424;13.482;2023-02-26T02:31:00;-3.10;99.90
46217;DHT22;47258;59.424;13.482;2023-02-26T02:33:35;-3.10;99.90
46217;DHT22;47258;59.424;13.482;2023-02-26T02:36:05;-3.10;99.90
46217;DHT22;47258;59.424;13.482;2023-02-26T02:38:36;-3.10;99.90
46217;DHT22;47258;59.424;13.482;2023-02-26T02:41:10;-3.10;99.90
46217;DHT22;47258;59.424;13.482;2023-02-26T02:43:41;-3.10;99.90
46217;DHT22;47258;59.424;13.482;2023-02-26T02:46:12;-3.10;99.90
46217;DHT22;47258;59.424;13.482;2023-02-26T02:48:44;-3.10;99.90
46217;DHT22;47258;59.424;13.482;2023-02-26T02:51:14;-3.10;99.90
46217;DHT22;47258;59.424;13.482;2023-02-26T02:53:46;-3.10;99.90
46217;DHT22;47258;59.424;13.482;2023-02-26T02:56:17;-3.10;99.90
46217;DHT22;47258;59.424;13.482;2023-02-26T02:58:48;-3.10;99.90
46217;DHT22;47258;59.424;13.482;2023-02-26T03:01:19;-3.10;99.90
46217;DHT22;47258;59.424;13.482;2023-02-26T03:03:54;-3.10;99.90
46217;DHT22;47258;59.424;13.482;2023-02-26T03:06:22;-3.10;99.90
46217;DHT22;47258;59.424;13.482;2023-02-26T03:08:50;-3.10;99.90
46217;DHT22;47258;59.424;13.482;2023-02-26T03:11:18;-3.20;99.90
46217;DHT22;47258;59.424;13.482;2023-02-26T03:13:45;-3.20;99.90
46217;DHT22;47258;59.424;13.482;2023-02-26T03:16:29;-3.20;99.90
46217;DHT22;47258;59.424;13.482;2023-02-26T03:19:03;-3.20;99.90
46217;DHT22;47258;59.424;13.482;2023-02-26T03:21:36;-3.20;99.90
46217;DHT22;47258;59.424;13.482;2023-02-26T03:24:11;-3.20;99.90
46217;DHT22;47258;59.424;13.482;2023-02-26T03:26:43;-3.20;99.90
46217;DHT22;47258;59.424;13.482;2023-02-26T03:29:17;-3.20;99.90
46217;DHT22;47258;59.424;13.482;2023-02-26T03:31:51;-3.20;99.90
46217;DHT22;47258;59.424;13.482;2023-02-26T03:34:24;-3.20;99.90
46217;DHT22;47258;59.424;13.482;2023-02-26T03:36:56;-3.20;99.90
46217;DHT22;47258;59.424;13.482;2023-02-26T03:39:28;-3.20;99.90
46217;DHT22;47258;59.424;13.482;2023-02-26T03:42:01;-3.20;99.90
46217;DHT22;47258;59.424;13.482;2023-02-26T03:44:32;-3.20;99.90
46217;DHT22;47258;59.424;13.482;2023-02-26T03:47:05;-3.20;99.90
46217;DHT22;47258;59.424;13.482;2023-02-26T03:49:37;-3.20;99.90
46217;DHT22;47258;59.424;13.482;2023-02-26T03:52:06;-3.20;99.90
46217;DHT22;47258;59.424;13.482;2023-02-26T03:54:36;-3.20;99.90
46217;DHT22;47258;59.424;13.482;2023-02-26T03:57:04;-3.20;99.90
46217;DHT22;47258;59.424;13.482;2023-02-26T03:59:33;-3.30;99.90
46217;DHT22;47258;59.424;13.482;2023-02-26T04:02:04;-3.30;99.90
46217;DHT22;47258;59.424;13.482;2023-02-26T04:04:40;-3.30;99.90
46217;DHT22;47258;59.424;13.482;2023-02-26T04:07:08;-3.30;99.90
46217;DHT22;47258;59.424;13.482;2023-02-26T04:09:36;-3.30;99.90
46217;DHT22;47258;59.424;13.482;2023-02-26T04:12:03;-3.30;99.90
46217;DHT22;47258;59.424;13.482;2023-02-26T04:14:30;-3.30;99.90
46217;DHT22;47258;59.424;13.482;2023-02-26T04:16:57;-3.30;99.90
46217;DHT22;47258;59.424;13.482;2023-02-26T04:19:26;-3.30;99.90
46217;DHT22;47258;59.424;13.482;2023-02-26T04:21:53;-3.30;99.90
46217;DHT22;47258;59.424;13.482;2023-02-26T04:24:21;-3.30;99.90
46217;DHT22;47258;59.424;13.482;2023-02-26T04:26:48;-3.30;99.90
46217;DHT22;47258;59.424;13.482;2023-02-26T04:29:15;-3.30;99.90
46217;DHT22;47258;59.424;13.482;2023-02-26T04:31:42;-3.30;99.90
46217;DHT22;47258;59.424;13.482;2023-02-26T04:34:09;-3.30;99.90
46217;DHT22;47258;59.424;13.482;2023-02-26T04:36:37;-3.30;99.90
46217;DHT22;47258;59.424;13.482;2023-02-26T04:39:04;-3.30;99.90
46217;DHT22;47258;59.424;13.482;2023-02-26T04:41:31;-3.30;99.90
46217;DHT22;47258;59.424;13.482;2023-02-26T04:43:59;-3.30;99.90
46217;DHT22;47258;59.424;13.482;2023-02-26T04:46:26;-3.30;99.90
46217;DHT22;47258;59.424;13.482;2023-02-26T04:48:53;-3.30;99.90
46217;DHT22;47258;59.424;13.482;2023-02-26T04:51:20;-3.30;99.90
46217;DHT22;47258;59.424;13.482;2023-02-26T04:53:48;-3.30;99.90
46217;DHT22;47258;59.424;13.482;2023-02-26T04:56:15;-3.40;99.90
46217;DHT22;47258;59.424;13.482;2023-02-26T04:58:42;-3.40;99.90
46217;DHT22;47258;59.424;13.482;2023-02-26T05:01:09;-3.40;99.90
46217;DHT22;47258;59.424;13.482;2023-02-26T05:03:38;-3.40;99.90
46217;DHT22;47258;59.424;13.482;2023-02-26T05:06:06;-3.40;99.90
46217;DHT22;47258;59.424;13.482;2023-02-26T05:08:33;-3.40;99.90
46217;DHT22;47258;59.424;13.482;2023-02-26T05:11:01;-3.40;99.90
46217;DHT22;47258;59.424;13.482;2023-02-26T05:13:28;-3.40;99.90
46217;DHT22;47258;59.424;13.482;2023-02-26T05:15:55;-3.40;99.90
46217;DHT22;47258;59.424;13.482;2023-02-26T05:18:22;-3.50;99.90
46217;DHT22;47258;59.424;13.482;2023-02-26T05:20:52;-3.50;99.90
46217;DHT22;47258;59.424;13.482;2023-02-26T05:23:19;-3.50;99.90
46217;DHT22;47258;59.424;13.482;2023-02-26T05:25:47;-3.50;99.90
46217;DHT22;47258;59.424;13.482;2023-02-26T05:28:15;-3.50;99.90
46217;DHT22;47258;59.424;13.482;2023-02-26T05:30:42;-3.40;99.90
46217;DHT22;47258;59.424;13.482;2023-02-26T05:33:09;-3.40;99.90
46217;DHT22;47258;59.424;13.482;2023-02-26T05:35:36;-3.40;99.90
46217;DHT22;47258;59.424;13.482;2023-02-26T05:38:04;-3.40;99.90
46217;DHT22;47258;59.424;13.482;2023-02-26T05:40:31;-3.40;99.90
46217;DHT22;47258;59.424;13.482;2023-02-26T05:42:58;-3.40;99.90
46217;DHT22;47258;59.424;13.482;2023-02-26T05:45:26;-3.40;99.90
46217;DHT22;47258;59.424;13.482;2023-02-26T05:47:53;-3.40;99.90
46217;DHT22;47258;59.424;13.482;2023-02-26T05:50:20;-3.40;99.90
46217;DHT22;47258;59.424;13.482;2023-02-26T05:52:47;-3.40;99.90
46217;DHT22;47258;59.424;13.482;2023-02-26T05:55:14;-3.40;99.90
46217;DHT22;47258;59.424;13.482;2023-02-26T05:57:42;-3.40;99.90
46217;DHT22;47258;59.424;13.482;2023-02-26T06:00:10;-3.40;99.90
46217;DHT22;47258;59.424;13.482;2023-02-26T06:02:39;-3.40;99.90
46217;DHT22;47258;59.424;13.482;2023-02-26T06:05:07;-3.40;99.90
46217;DHT22;47258;59.424;13.482;2023-02-26T06:07:34;-3.40;99.90
46217;DHT22;47258;59.424;13.482;2023-02-26T06:10:01;-3.40;99.90
46217;DHT22;47258;59.424;13.482;2023-02-26T06:12:28;-3.40;99.90
46217;DHT22;47258;59.424;13.482;2023-02-26T06:14:55;-3.30;99.90
46217;DHT22;47258;59.424;13.482;2023-02-26T06:17:22;-3.40;99.90
46217;DHT22;47258;59.424;13.482;2023-02-26T06:19:51;-3.30;99.90
46217;DHT22;47258;59.424;13.482;2023-02-26T06:22:18;-3.30;99.90
46217;DHT22;47258;59.424;13.482;2023-02-26T06:24:45;-3.30;99.90
46217;DHT22;47258;59.424;13.482;2023-02-26T06:27:12;-3.30;99.90
46217;DHT22;47258;59.424;13.482;2023-02-26T06:29:39;-3.30;99.90
46217;DHT22;47258;59.424;13.482;2023-02-26T06:32:07;-3.30;99.90
46217;DHT22;47258;59.424;13.482;2023-02-26T06:34:34;-3.30;99.90
46217;DHT22;47258;59.424;13.482;2023-02-26T06:37:03;-3.30;99.90
46217;DHT22;47258;59.424;13.482;2023-02-26T06:39:30;-3.20;99.90
46217;DHT22;47258;59.424;13.482;2023-02-26T06:41:57;-3.20;99.90
46217;DHT22;47258;59.424;13.482;2023-02-26T06:44:24;-3.20;99.90
46217;DHT22;47258;59.424;13.482;2023-02-26T06:46:51;-3.20;99.90
46217;DHT22;47258;59.424;13.482;2023-02-26T06:49:18;-3.10;99.90
46217;DHT22;47258;59.424;13.482;2023-02-26T06:51:45;-3.10;99.90
46217;DHT22;47258;59.424;13.482;2023-02-26T06:54:14;-3.10;99.90
46217;DHT22;47258;59.424;13.482;2023-02-26T06:56:41;-3.10;99.90
46217;DHT22;47258;59.424;13.482;2023-02-26T06:59:08;-3.00;99.90
46217;DHT22;47258;59.424;13.482;2023-02-26T07:01:35;-3.00;99.90
46217;DHT22;47258;59.424;13.482;2023-02-26T07:04:02;-2.90;99.90
46217;DHT22;47258;59.424;13.482;2023-02-26T07:06:29;-2.80;99.90
46217;DHT22;47258;59.424;13.482;2023-02-26T07:08:57;-2.80;99.90
46217;DHT22;47258;59.424;13.482;2023-02-26T07:11:25;-2.70;99.90
46217;DHT22;47258;59.424;13.482;2023-02-26T07:13:52;-2.40;99.90
46217;DHT22;47258;59.424;13.482;2023-02-26T07:16:19;-2.10;99.90
46217;DHT22;47258;59.424;13.482;2023-02-26T07:18:46;-2.10;99.90
46217;DHT22;47258;59.424;13.482;2023-02-26T07:21:13;-2.10;99.90
46217;DHT22;47258;59.424;13.482;2023-02-26T07:23:40;-2.10;99.90
46217;DHT22;47258;59.424;13.482;2023-02-26T07:26:07;-2.20;99.90
46217;DHT22;47258;59.424;13.482;2023-02-26T07:28:36;-2.20;99.90
46217;DHT22;47258;59.424;13.482;2023-02-26T07:31:03;-2.20;99.90
46217;DHT22;47258;59.424;13.482;2023-02-26T07:33:30;-2.10;99.90
46217;DHT22;47258;59.424;13.482;2023-02-26T07:35:59;-2.00;99.90
46217;DHT22;47258;59.424;13.482;2023-02-26T07:38:26;-1.90;99.90
46217;DHT22;47258;59.424;13.482;2023-02-26T07:40:54;-1.70;99.90
46217;DHT22;47258;59.424;13.482;2023-02-26T07:43:22;-1.20;99.90
46217;DHT22;47258;59.424;13.482;2023-02-26T07:45:50;-1.10;99.90
46217;DHT22;47258;59.424;13.482;2023-02-26T07:48:18;-1.10;99.90
46217;DHT22;47258;59.424;13.482;2023-02-26T07:50:45;-1.30;99.90
46217;DHT22;47258;59.424;13.482;2023-02-26T07:53:12;-1.30;99.90
46217;DHT22;47258;59.424;13.482;2023-02-26T07:55:39;-1.30;99.90
46217;DHT22;47258;59.424;13.482;2023-02-26T07:58:06;-1.20;99.90
46217;DHT22;47258;59.424;13.482;2023-02-26T08:00:34;-0.90;99.90
46217;DHT22;47258;59.424;13.482;2023-02-26T08:03:02;-0.80;99.90
46217;DHT22;47258;59.424;13.482;2023-02-26T08:05:29;-0.80;99.90
46217;DHT22;47258;59.424;13.482;2023-02-26T08:07:56;-0.60;99.90
46217;DHT22;47258;59.424;13.482;2023-02-26T08:10:23;0.50;99.90
46217;DHT22;47258;59.424;13.482;2023-02-26T08:12:50;1.40;99.90
46217;DHT22;47258;59.424;13.482;2023-02-26T08:15:17;1.30;99.90
46217;DHT22;47258;59.424;13.482;2023-02-26T08:17:44;0.90;99.90
46217;DHT22;47258;59.424;13.482;2023-02-26T08:20:13;0.60;99.90
46217;DHT22;47258;59.424;13.482;2023-02-26T08:22:40;0.40;99.90
46217;DHT22;47258;59.424;13.482;2023-02-26T08:25:08;0.20;99.90
46217;DHT22;47258;59.424;13.482;2023-02-26T08:27:35;0.40;99.90
46217;DHT22;47258;59.424;13.482;2023-02-26T08:30:03;1.30;99.90
46217;DHT22;47258;59.424;13.482;2023-02-26T08:32:30;2.00;99.90
46217;DHT22;47258;59.424;13.482;2023-02-26T08:34:57;2.40;99.90
46217;DHT22;47258;59.424;13.482;2023-02-26T08:37:25;3.30;99.90
46217;DHT22;47258;59.424;13.482;2023-02-26T08:39:52;4.30;99.90
46217;DHT22;47258;59.424;13.482;2023-02-26T08:42:19;5.20;99.90
46217;DHT22;47258;59.424;13.482;2023-02-26T08:44:46;6.10;99.90
46217;DHT22;47258;59.424;13.482;2023-02-26T08:47:13;7.00;99.90
46217;DHT22;47258;59.424;13.482;2023-02-26T08:49:40;7.70;99.90
46217;DHT22;47258;59.424;13.482;2023-02-26T08:52:07;8.70;99.90
46217;DHT22;47258;59.424;13.482;2023-02-26T08:54:36;10.00;99.90
46217;DHT22;47258;59.424;13.482;2023-02-26T08:57:03;10.50;99.90
46217;DHT22;47258;59.424;13.482;2023-02-26T08:59:30;10.30;99.90
46217;DHT22;47258;59.424;13.482;2023-02-26T09:01:57;9.10;99.90
46217;DHT22;47258;59.424;13.482;2023-02-26T09:04:24;8.20;99.90
46217;DHT22;47258;59.424;13.482;2023-02-26T09:06:53;8.30;99.90
46217;DHT22;47258;59.424;13.482;2023-02-26T09:09:20;8.70;99.90
46217;DHT22;47258;59.424;13.482;2023-02-26T09:11:49;9.00;99.90
46217;DHT22;47258;59.424;13.482;2023-02-26T09:14:16;8.90;99.90
46217;DHT22;47258;59.424;13.482;2023-02-26T09:16:43;8.90;99.90
46217;DHT22;47258;59.424;13.482;2023-02-26T09:19:10;9.00;99.90
46217;DHT22;47258;59.424;13.482;2023-02-26T09:21:37;8.50;99.90
46217;DHT22;47258;59.424;13.482;2023-02-26T09:24:04;8.00;99.90
46217;DHT22;47258;59.424;13.482;2023-02-26T09:26:32;7.40;99.90
46217;DHT22;47258;59.424;13.482;2023-02-26T09:29:00;7.00;99.90
46217;DHT22;47258;59.424;13.482;2023-02-26T09:31:27;6.60;99.90
46217;DHT22;47258;59.424;13.482;2023-02-26T09:33:54;6.40;99.90
46217;DHT22;47258;59.424;13.482;2023-02-26T09:36:21;6.70;99.90
46217;DHT22;47258;59.424;13.482;2023-02-26T09:38:48;6.60;99.90
46217;DHT22;47258;59.424;13.482;2023-02-26T09:41:20;5.90;99.90
46217;DHT22;47258;59.424;13.482;2023-02-26T09:44:06;5.40;99.90
46217;DHT22;47258;59.424;13.482;2023-02-26T09:46:41;5.10;99.90
46217;DHT22;47258;59.424;13.482;2023-02-26T09:49:17;4.80;99.90
46217;DHT22;47258;59.424;13.482;2023-02-26T09:51:48;4.70;99.90
46217;DHT22;47258;59.424;13.482;2023-02-26T09:54:18;4.70;99.90
46217;DHT22;47258;59.424;13.482;2023-02-26T09:56:47;4.70;99.90
46217;DHT22;47258;59.424;13.482;2023-02-26T09:59:17;4.80;99.90
46217;DHT22;47258;59.424;13.482;2023-02-26T10:01:50;4.70;99.90
46217;DHT22;47258;59.424;13.482;2023-02-26T10:04:26;4.80;99.90
46217;DHT22;47258;59.424;13.482;2023-02-26T10:07:09;4.80;99.90
46217;DHT22;47258;59.424;13.482;2023-02-26T10:12:36;4.90;99.90
46217;DHT22;47258;59.424;13.482;2023-02-26T10:15:10;4.90;99.90
46217;DHT22;47258;59.424;13.482;2023-02-26T10:17:44;5.00;99.90
46217;DHT22;47258;59.424;13.482;2023-02-26T10:20:17;5.00;99.90
46217;DHT22;47258;59.424;13.482;2023-02-26T10:23:00;5.10;99.90
46217;DHT22;47258;59.424;13.482;2023-02-26T10:25:33;5.20;99.90
46217;DHT22;47258;59.424;13.482;2023-02-26T10:28:10;5.20;99.90
46217;DHT22;47258;59.424;13.482;2023-02-26T10:30:50;5.20;99.90
46217;DHT22;47258;59.424;13.482;2023-02-26T10:33:21;5.30;99.90
46217;DHT22;47258;59.424;13.482;2023-02-26T10:35:53;5.30;99.90
46217;DHT22;47258;59.424;13.482;2023-02-26T10:38:26;5.30;99.90
46217;DHT22;47258;59.424;13.482;2023-02-26T10:40:59;5.30;99.90
46217;DHT22;47258;59.424;13.482;2023-02-26T10:43:31;5.30;99.90
46217;DHT22;47258;59.424;13.482;2023-02-26T10:46:09;5.20;99.90
46217;DHT22;47258;59.424;13.482;2023-02-26T10:48:49;5.10;99.90
46217;DHT22;47258;59.424;13.482;2023-02-26T10:51:19;5.10;99.90
46217;DHT22;47258;59.424;13.482;2023-02-26T10:53:51;5.10;99.90
46217;DHT22;47258;59.424;13.482;2023-02-26T10:56:23;5.20;99.90
46217;DHT22;47258;59.424;13.482;2023-02-26T10:58:51;5.20;99.90
46217;DHT22;47258;59.424;13.482;2023-02-26T11:01:24;5.30;99.90
46217;DHT22;47258;59.424;13.482;2023-02-26T11:03:55;5.30;99.90
46217;DHT22;47258;59.424;13.482;2023-02-26T11:06:27;5.20;99.90
46217;DHT22;47258;59.424;13.482;2023-02-26T11:08:56;5.20;99.90
46217;DHT22;47258;59.424;13.482;2023-02-26T11:11:36;5.20;99.90
46217;DHT22;47258;59.424;13.482;2023-02-26T11:14:05;5.20;99.90
46217;DHT22;47258;59.424;13.482;2023-02-26T11:16:35;5.10;99.90
46217;DHT22;47258;59.424;13.482;2023-02-26T11:19:06;5.10;99.90
46217;DHT22;47258;59.424;13.482;2023-02-26T11:21:37;5.10;99.90
46217;DHT22;47258;59.424;13.482;2023-02-26T11:24:07;5.10;99.90
46217;DHT22;47258;59.424;13.482;2023-02-26T11:26:37;5.00;99.90
46217;DHT22;47258;59.424;13.482;2023-02-26T11:29:05;5.00;99.90
46217;DHT22;47258;59.424;13.482;2023-02-26T11:31:33;4.90;99.90
46217;DHT22;47258;59.424;13.482;2023-02-26T11:34:02;4.90;99.90
46217;DHT22;47258;59.424;13.482;2023-02-26T11:36:31;4.90;99.90
46217;DHT22;47258;59.424;13.482;2023-02-26T11:39:01;4.90;99.90
46217;DHT22;47258;59.424;13.482;2023-02-26T11:41:29;4.90;99.90
46217;DHT22;47258;59.424;13.482;2023-02-26T11:44:03;5.00;99.90
46217;DHT22;47258;59.424;13.482;2023-02-26T11:46:37;5.00;99.90
46217;DHT22;47258;59.424;13.482;2023-02-26T11:49:09;5.00;99.90
46217;DHT22;47258;59.424;13.482;2023-02-26T11:51:42;5.10;99.90
46217;DHT22;47258;59.424;13.482;2023-02-26T11:54:20;5.10;99.90
46217;DHT22;47258;59.424;13.482;2023-02-26T11:56:48;5.00;99.90
46217;DHT22;47258;59.424;13.482;2023-02-26T11:59:18;4.90;99.90
46217;DHT22;47258;59.424;13.482;2023-02-26T12:01:48;4.80;99.90
46217;DHT22;47258;59.424;13.482;2023-02-26T12:04:18;4.80;99.90
46217;DHT22;47258;59.424;13.482;2023-02-26T12:06:49;4.80;99.90
46217;DHT22;47258;59.424;13.482;2023-02-26T12:09:18;4.70;99.90
46217;DHT22;47258;59.424;13.482;2023-02-26T12:12:01;4.70;99.90
46217;DHT22;47258;59.424;13.482;2023-02-26T12:14:46;4.80;99.90
46217;DHT22;47258;59.424;13.482;2023-02-26T12:17:30;4.80;99.90
46217;DHT22;47258;59.424;13.482;2023-02-26T12:20:07;4.80;99.90
46217;DHT22;47258;59.424;13.482;2023-02-26T12:22:48;4.90;99.90
46217;DHT22;47258;59.424;13.482;2023-02-26T12:28:47;4.90;99.90
46217;DHT22;47258;59.424;13.482;2023-02-26T12:34:26;4.90;99.90
46217;DHT22;47258;59.424;13.482;2023-02-26T12:37:18;4.90;99.90
46217;DHT22;47258;59.424;13.482;2023-02-26T12:39:59;5.00;99.90
46217;DHT22;47258;59.424;13.482;2023-02-26T12:42:39;5.00;99.90
46217;DHT22;47258;59.424;13.482;2023-02-26T12:45:19;5.00;99.90
46217;DHT22;47258;59.424;13.482;2023-02-26T12:48:01;4.90;99.90
46217;DHT22;47258;59.424;13.482;2023-02-26T12:50:43;4.90;99.90
46217;DHT22;47258;59.424;13.482;2023-02-26T12:53:32;4.90;99.90
46217;DHT22;47258;59.424;13.482;2023-02-26T12:56:23;4.90;99.90
46217;DHT22;47258;59.424;13.482;2023-02-26T12:59:05;4.90;99.90
46217;DHT22;47258;59.424;13.482;2023-02-26T13:01:49;4.90;99.90
46217;DHT22;47258;59.424;13.482;2023-02-26T13:04:48;4.90;99.90
46217;DHT22;47258;59.424;13.482;2023-02-26T13:07:39;4.90;99.90
46217;DHT22;47258;59.424;13.482;2023-02-26T13:10:20;4.90;99.90
46217;DHT22;47258;59.424;13.482;2023-02-26T13:13:00;4.90;99.90
46217;DHT22;47258;59.424;13.482;2023-02-26T13:15:41;4.90;99.90
46217;DHT22;47258;59.424;13.482;2023-02-26T13:18:20;4.90;99.90
46217;DHT22;47258;59.424;13.482;2023-02-26T13:20:54;4.90;99.90
46217;DHT22;47258;59.424;13.482;2023-02-26T13:23:30;4.90;99.90
46217;DHT22;47258;59.424;13.482;2023-02-26T13:26:01;5.00;99.90
46217;DHT22;47258;59.424;13.482;2023-02-26T13:28:36;5.00;99.90
46217;DHT22;47258;59.424;13.482;2023-02-26T13:31:08;5.00;99.90
46217;DHT22;47258;59.424;13.482;2023-02-26T13:33:37;5.10;99.90
46217;DHT22;47258;59.424;13.482;2023-02-26T13:36:06;5.10;99.90
46217;DHT22;47258;59.424;13.482;2023-02-26T13:38:43;5.20;99.90
46217;DHT22;47258;59.424;13.482;2023-02-26T13:41:16;5.20;99.90
46217;DHT22;47258;59.424;13.482;2023-02-26T13:47:12;5.30;99.90
46217;DHT22;47258;59.424;13.482;2023-02-26T13:49:50;5.20;99.90
46217;DHT22;47258;59.424;13.482;2023-02-26T13:52:23;5.20;99.90
46217;DHT22;47258;59.424;13.482;2023-02-26T13:54:52;5.20;99.90
46217;DHT22;47258;59.424;13.482;2023-02-26T13:57:26;5.20;99.90
46217;DHT22;47258;59.424;13.482;2023-02-26T14:00:01;5.20;99.90
46217;DHT22;47258;59.424;13.482;2023-02-26T14:02:50;5.20;99.90
46217;DHT22;47258;59.424;13.482;2023-02-26T14:11:41;5.30;99.90
46217;DHT22;47258;59.424;13.482;2023-02-26T14:14:17;5.30;99.90
46217;DHT22;47258;59.424;13.482;2023-02-26T14:16:49;5.30;99.90
46217;DHT22;47258;59.424;13.482;2023-02-26T14:19:22;5.30;99.90
46217;DHT22;47258;59.424;13.482;2023-02-26T14:21:50;5.40;99.90
46217;DHT22;47258;59.424;13.482;2023-02-26T14:24:22;5.40;99.90
46217;DHT22;47258;59.424;13.482;2023-02-26T14:27:32;5.40;99.90
46217;DHT22;47258;59.424;13.482;2023-02-26T14:30:11;5.40;99.90
46217;DHT22;47258;59.424;13.482;2023-02-26T14:32:46;5.40;99.90
46217;DHT22;47258;59.424;13.482;2023-02-26T14:35:17;5.40;99.90
46217;DHT22;47258;59.424;13.482;2023-02-26T14:37:48;5.40;99.90
46217;DHT22;47258;59.424;13.482;2023-02-26T14:40:20;5.30;99.90
46217;DHT22;47258;59.424;13.482;2023-02-26T14:42:53;5.20;99.90
46217;DHT22;47258;59.424;13.482;2023-02-26T14:45:27;5.20;99.90
46217;DHT22;47258;59.424;13.482;2023-02-26T14:47:56;5.20;99.90
46217;DHT22;47258;59.424;13.482;2023-02-26T14:50:25;5.10;99.90
46217;DHT22;47258;59.424;13.482;2023-02-26T14:56:20;5.10;99.90
46217;DHT22;47258;59.424;13.482;2023-02-26T14:59:07;5.10;99.90
46217;DHT22;47258;59.424;13.482;2023-02-26T15:01:54;5.10;99.90
46217;DHT22;47258;59.424;13.482;2023-02-26T15:04:51;5.10;99.90
46217;DHT22;47258;59.424;13.482;2023-02-26T15:07:30;5.00;99.90
46217;DHT22;47258;59.424;13.482;2023-02-26T15:10:13;4.90;99.90
46217;DHT22;47258;59.424;13.482;2023-02-26T15:12:55;4.90;99.90
46217;DHT22;47258;59.424;13.482;2023-02-26T15:15:34;4.80;99.90
46217;DHT22;47258;59.424;13.482;2023-02-26T15:18:34;4.80;99.90
46217;DHT22;47258;59.424;13.482;2023-02-26T15:21:09;4.80;99.90
46217;DHT22;47258;59.424;13.482;2023-02-26T15:23:40;4.80;99.90
46217;DHT22;47258;59.424;13.482;2023-02-26T15:26:15;4.80;99.90
46217;DHT22;47258;59.424;13.482;2023-02-26T15:28:43;4.90;99.90
46217;DHT22;47258;59.424;13.482;2023-02-26T15:31:12;4.90;99.90
46217;DHT22;47258;59.424;13.482;2023-02-26T15:33:40;4.90;99.90
46217;DHT22;47258;59.424;13.482;2023-02-26T15:36:13;4.90;99.90
46217;DHT22;47258;59.424;13.482;2023-02-26T15:38:45;4.90;99.90
46217;DHT22;47258;59.424;13.482;2023-02-26T15:41:13;4.90;99.90
46217;DHT22;47258;59.424;13.482;2023-02-26T15:43:47;4.80;99.90
46217;DHT22;47258;59.424;13.482;2023-02-26T15:46:16;4.80;99.90
46217;DHT22;47258;59.424;13.482;2023-02-26T15:48:45;4.70;99.90
46217;DHT22;47258;59.424;13.482;2023-02-26T15:51:13;4.70;99.90
46217;DHT22;47258;59.424;13.482;2023-02-26T15:53:46;4.60;99.90
46217;DHT22;47258;59.424;13.482;2023-02-26T15:56:15;4.60;99.90
46217;DHT22;47258;59.424;13.482;2023-02-26T15:58:50;4.60;99.90
46217;DHT22;47258;59.424;13.482;2023-02-26T16:01:21;4.50;99.90
46217;DHT22;47258;59.424;13.482;2023-02-26T16:03:49;4.50;99.90
46217;DHT22;47258;59.424;13.482;2023-02-26T16:06:19;4.50;99.90
46217;DHT22;47258;59.424;13.482;2023-02-26T16:08:46;4.50;99.90
46217;DHT22;47258;59.424;13.482;2023-02-26T16:11:14;4.50;99.90